sensor_id;sensor_type;location;lat;lon;timestamp;pressure;altitude;pressure_sealevel;temperature;humidity
78745;BME280;68064;53.100;8.824;2023-07-16T00:00:49;100870.75;;;19.90;63.06
78745;BME280;68064;53.100;8.824;2023-07-16T00:01:50;100876.81;;;19.87;62.97
78745;BME280;68064;53.100;8.824;2023-07-16T00:02:51;100878.56;;;19.94;61.24
78745;BME280;68064;53.100;8.824;2023-07-16T00:03:52;100876.78;;;19.81;69.75
78745;BME280;68064;53.100;8.824;2023-07-16T00:04:53;100875.06;;;19.86;61.79
78745;BME280;68064;53.100;8.824;2023-07-16T00:05:54;100885.47;;;19.88;63.97
78745;BME280;68064;53.100;8.824;2023-07-16T00:06:56;100893.25;;;19.86;61.57
78745;BME280;68064;53.100;8.824;2023-07-16T00:07:58;100897.59;;;19.89;62.27
78745;BME280;68064;53.100;8.824;2023-07-16T00:08:59;100896.72;;;19.87;60.86
78745;BME280;68064;53.100;8.824;2023-07-16T00:10:00;100897.59;;;19.84;63.08
78745;BME280;68064;53.100;8.824;2023-07-16T00:11:02;100895.78;;;19.76;65.35
78745;BME280;68064;53.100;8.824;2023-07-16T00:12:04;100900.94;;;19.70;64.97
78745;BME280;68064;53.100;8.824;2023-07-16T00:13:06;100888.84;;;19.76;62.83
78745;BME280;68064;53.100;8.824;2023-07-16T00:14:06;100888.88;;;19.78;62.06
78745;BME280;68064;53.100;8.824;2023-07-16T00:15:08;100879.34;;;19.77;61.32
78745;BME280;68064;53.100;8.824;2023-07-16T00:16:09;100889.66;;;19.65;63.96
78745;BME280;68064;53.100;8.824;2023-07-16T00:17:11;100885.31;;;19.64;64.67
78745;BME280;68064;53.100;8.824;2023-07-16T00:18:11;100872.28;;;19.58;64.43
78745;BME280;68064;53.100;8.824;2023-07-16T00:19:14;100863.66;;;19.59;62.87
78745;BME280;68064;53.100;8.824;2023-07-16T00:20:15;100857.59;;;19.63;61.83
78745;BME280;68064;53.100;8.824;2023-07-16T00:21:16;100855.88;;;19.63;61.46
78745;BME280;68064;53.100;8.824;2023-07-16T00:22:19;100856.69;;;19.56;67.04
78745;BME280;68064;53.100;8.824;2023-07-16T00:23:20;100851.47;;;19.56;63.17
78745;BME280;68064;53.100;8.824;2023-07-16T00:24:21;100847.19;;;19.60;62.05
78745;BME280;68064;53.100;8.824;2023-07-16T00:25:22;100851.56;;;19.62;61.75
78745;BME280;68064;53.100;8.824;2023-07-16T00:26:23;100861.06;;;19.63;63.77
78745;BME280;68064;53.100;8.824;2023-07-16T00:27:24;100870.56;;;19.60;61.63
78745;BME280;68064;53.100;8.824;2023-07-16T00:28:25;100883.53;;;19.55;68.42
78745;BME280;68064;53.100;8.824;2023-07-16T00:29:26;100884.38;;;19.52;62.35
78745;BME280;68064;53.100;8.824;2023-07-16T00:30:27;100884.38;;;19.52;64.70
78745;BME280;68064;53.100;8.824;2023-07-16T00:31:28;100899.03;;;19.43;64.29
78745;BME280;68064;53.100;8.824;2023-07-16T00:32:29;100895.63;;;19.56;61.96
78745;BME280;68064;53.100;8.824;2023-07-16T00:33:30;100895.63;;;19.51;61.96
78745;BME280;68064;53.100;8.824;2023-07-16T00:34:31;100895.63;;;19.51;61.59
78745;BME280;68064;53.100;8.824;2023-07-16T00:35:32;100902.34;;;19.34;69.75
78745;BME280;68064;53.100;8.824;2023-07-16T00:36:33;100899.03;;;19.43;62.96
78745;BME280;68064;53.100;8.824;2023-07-16T00:37:36;100901.63;;;19.44;61.72
78745;BME280;68064;53.100;8.824;2023-07-16T00:38:37;100897.34;;;19.51;61.70
78745;BME280;68064;53.100;8.824;2023-07-16T00:39:38;100904.97;;;19.36;67.11
78745;BME280;68064;53.100;8.824;2023-07-16T00:40:39;100897.19;;;19.37;62.94
78745;BME280;68064;53.100;8.824;2023-07-16T00:41:40;100887.69;;;19.38;62.35
78745;BME280;68064;53.100;8.824;2023-07-16T00:42:41;100879.00;;;19.33;70.41
78745;BME280;68064;53.100;8.824;2023-07-16T00:43:42;100872.81;;;19.17;66.81
78745;BME280;68064;53.100;8.824;2023-07-16T00:44:43;100869.38;;;19.24;63.60
78745;BME280;68064;53.100;8.824;2023-07-16T00:45:45;100882.41;;;19.29;62.69
78745;BME280;68064;53.100;8.824;2023-07-16T00:46:47;100895.28;;;19.18;72.49
78745;BME280;68064;53.100;8.824;2023-07-16T00:47:48;100889.28;;;19.21;65.05
78745;BME280;68064;53.100;8.824;2023-07-16T00:48:49;100890.97;;;19.17;68.93
78745;BME280;68064;53.100;8.824;2023-07-16T00:49:50;100888.41;;;19.22;63.66
78745;BME280;68064;53.100;8.824;2023-07-16T00:50:52;100897.97;;;19.27;62.62
78745;BME280;68064;53.100;8.824;2023-07-16T00:51:54;100898.88;;;19.31;62.07
78745;BME280;68064;53.100;8.824;2023-07-16T00:52:57;100892.91;;;19.39;61.84
78745;BME280;68064;53.100;8.824;2023-07-16T00:53:58;100891.22;;;19.41;62.31
78745;BME280;68064;53.100;8.824;2023-07-16T00:55:00;100885.06;;;19.33;63.24
78745;BME280;68064;53.100;8.824;2023-07-16T00:56:01;100890.22;;;19.30;62.38
78745;BME280;68064;53.100;8.824;2023-07-16T00:57:03;100889.34;;;19.30;61.62
78745;BME280;68064;53.100;8.824;2023-07-16T00:58:05;100897.16;;;19.30;61.54
78745;BME280;68064;53.100;8.824;2023-07-16T00:59:06;100889.38;;;19.33;61.98
78745;BME280;68064;53.100;8.824;2023-07-16T01:00:08;100892.00;;;19.36;64.62
78745;BME280;68064;53.100;8.824;2023-07-16T01:01:10;100897.13;;;19.27;64.07
78745;BME280;68064;53.100;8.824;2023-07-16T01:02:10;100900.56;;;19.26;62.50
78745;BME280;68064;53.100;8.824;2023-07-16T01:03:13;100909.28;;;19.34;62.00
78745;BME280;68064;53.100;8.824;2023-07-16T01:04:14;100920.56;;;19.37;62.01
78745;BME280;68064;53.100;8.824;2023-07-16T01:05:15;100930.94;;;19.37;61.73
78745;BME280;68064;53.100;8.824;2023-07-16T01:06:21;100935.34;;;19.41;62.09
78745;BME280;68064;53.100;8.824;2023-07-16T01:07:24;100945.75;;;19.43;63.02
78745;BME280;68064;53.100;8.824;2023-07-16T01:08:31;100945.66;;;19.35;62.99
78745;BME280;68064;53.100;8.824;2023-07-16T01:09:36;100947.41;;;19.39;64.77
78745;BME280;68064;53.100;8.824;2023-07-16T01:10:41;100940.38;;;19.26;66.29
78745;BME280;68064;53.100;8.824;2023-07-16T01:11:44;100936.09;;;19.34;62.94
78745;BME280;68064;53.100;8.824;2023-07-16T01:12:45;100929.22;;;19.36;62.63
78745;BME280;68064;53.100;8.824;2023-07-16T01:13:47;100924.84;;;19.34;62.28
78745;BME280;68064;53.100;8.824;2023-07-16T01:14:49;100927.25;;;19.11;68.33
78745;BME280;68064;53.100;8.824;2023-07-16T01:15:51;100920.47;;;19.25;63.98
78745;BME280;68064;53.100;8.824;2023-07-16T01:16:52;100923.84;;;19.18;64.97
78745;BME280;68064;53.100;8.824;2023-07-16T01:17:54;100926.47;;;19.20;64.76
78745;BME280;68064;53.100;8.824;2023-07-16T01:18:54;100924.75;;;19.22;71.32
78745;BME280;68064;53.100;8.824;2023-07-16T01:19:55;100930.72;;;19.13;65.91
78745;BME280;68064;53.100;8.824;2023-07-16T01:20:57;100927.34;;;19.20;64.11
78745;BME280;68064;53.100;8.824;2023-07-16T01:22:09;100928.16;;;19.16;63.36
78745;BME280;68064;53.100;8.824;2023-07-16T01:23:30;100941.16;;;19.19;62.86
78745;BME280;68064;53.100;8.824;2023-07-16T01:26:10;100940.28;;;19.19;63.67
78745;BME280;68064;53.100;8.824;2023-07-16T01:27:34;100935.03;;;19.13;63.56
78745;BME280;68064;53.100;8.824;2023-07-16T01:30:03;100936.88;;;19.23;62.83
78745;BME280;68064;53.100;8.824;2023-07-16T01:31:05;100946.34;;;19.19;62.70
78745;BME280;68064;53.100;8.824;2023-07-16T01:32:07;100945.47;;;19.19;62.44
78745;BME280;68064;53.100;8.824;2023-07-16T01:33:11;100946.34;;;19.19;62.70
78745;BME280;68064;53.100;8.824;2023-07-16T01:34:14;100942.94;;;19.23;62.77
78745;BME280;68064;53.100;8.824;2023-07-16T01:35:15;100947.22;;;19.20;64.58
78745;BME280;68064;53.100;8.824;2023-07-16T01:36:17;100943.75;;;19.19;63.55
78745;BME280;68064;53.100;8.824;2023-07-16T01:37:19;100936.84;;;19.20;62.83
78745;BME280;68064;53.100;8.824;2023-07-16T01:38:19;100927.31;;;19.17;63.19
78745;BME280;68064;53.100;8.824;2023-07-16T01:39:21;100942.75;;;19.05;67.88
78745;BME280;68064;53.100;8.824;2023-07-16T01:40:22;100940.16;;;19.03;68.33
78745;BME280;68064;53.100;8.824;2023-07-16T01:41:24;100939.25;;;19.00;64.03
78745;BME280;68064;53.100;8.824;2023-07-16T01:42:24;100940.16;;;19.03;63.49
78745;BME280;68064;53.100;8.824;2023-07-16T01:43:25;100948.03;;;19.11;63.48
78745;BME280;68064;53.100;8.824;2023-07-16T01:44:26;100948.88;;;19.10;63.23
78745;BME280;68064;53.100;8.824;2023-07-16T01:45:29;100943.66;;;19.09;62.99
78745;BME280;68064;53.100;8.824;2023-07-16T01:46:30;100941.63;;;18.80;75.51
78745;BME280;68064;53.100;8.824;2023-07-16T01:47:39;100943.47;;;18.90;65.24
78745;BME280;68064;53.100;8.824;2023-07-16T01:48:41;100941.78;;;18.94;63.88
78745;BME280;68064;53.100;8.824;2023-07-16T01:49:42;100950.38;;;18.90;73.59
78745;BME280;68064;53.100;8.824;2023-07-16T01:50:43;100942.59;;;18.88;65.08
78745;BME280;68064;53.100;8.824;2023-07-16T01:51:44;100945.25;;;18.96;63.67
78745;BME280;68064;53.100;8.824;2023-07-16T01:52:45;100947.84;;;18.94;69.20
78745;BME280;68064;53.100;8.824;2023-07-16T01:53:46;100940.06;;;18.94;64.14
78745;BME280;68064;53.100;8.824;2023-07-16T01:54:47;100941.81;;;18.97;63.55
78745;BME280;68064;53.100;8.824;2023-07-16T01:55:48;100941.81;;;18.97;63.16
78745;BME280;68064;53.100;8.824;2023-07-16T01:56:49;100938.34;;;18.95;62.75
78745;BME280;68064;53.100;8.824;2023-07-16T01:57:50;100932.22;;;18.90;62.81
78745;BME280;68064;53.100;8.824;2023-07-16T01:58:51;100932.25;;;18.93;64.55
78745;BME280;68064;53.100;8.824;2023-07-16T01:59:52;100921.84;;;18.88;62.94
78745;BME280;68064;53.100;8.824;2023-07-16T02:00:54;100931.34;;;18.88;62.68
78745;BME280;68064;53.100;8.824;2023-07-16T02:01:55;100929.63;;;18.90;62.75
78745;BME280;68064;53.100;8.824;2023-07-16T02:02:57;100927.03;;;18.90;62.89
78745;BME280;68064;53.100;8.824;2023-07-16T02:03:57;100927.78;;;18.80;73.48
78745;BME280;68064;53.100;8.824;2023-07-16T02:04:58;100928.63;;;18.76;71.67
78745;BME280;68064;53.100;8.824;2023-07-16T02:05:59;100919.88;;;18.71;66.05
78745;BME280;68064;53.100;8.824;2023-07-16T02:07:01;100919.88;;;18.71;64.09
78745;BME280;68064;53.100;8.824;2023-07-16T02:08:02;100919.94;;;18.74;63.75
78745;BME280;68064;53.100;8.824;2023-07-16T02:09:03;100912.22;;;18.78;63.78
78745;BME280;68064;53.100;8.824;2023-07-16T02:10:05;100913.94;;;18.78;63.53
78745;BME280;68064;53.100;8.824;2023-07-16T02:11:06;100911.31;;;18.76;63.45
78745;BME280;68064;53.100;8.824;2023-07-16T02:12:07;100913.94;;;18.78;63.24
78745;BME280;68064;53.100;8.824;2023-07-16T02:13:08;100913.91;;;18.76;62.76
78745;BME280;68064;53.100;8.824;2023-07-16T02:14:09;100906.13;;;18.76;63.02
78745;BME280;68064;53.100;8.824;2023-07-16T02:15:10;100907.84;;;18.73;62.53
78745;BME280;68064;53.100;8.824;2023-07-16T02:16:12;100906.09;;;18.72;62.72
78745;BME280;68064;53.100;8.824;2023-07-16T02:17:13;100908.69;;;18.72;62.46
78745;BME280;68064;53.100;8.824;2023-07-16T02:18:14;100899.16;;;18.71;62.67
78745;BME280;68064;53.100;8.824;2023-07-16T02:19:15;100906.09;;;18.72;62.36
78745;BME280;68064;53.100;8.824;2023-07-16T02:20:16;100909.53;;;18.71;62.29
78745;BME280;68064;53.100;8.824;2023-07-16T02:21:17;100907.81;;;18.71;62.77
78745;BME280;68064;53.100;8.824;2023-07-16T02:22:18;100905.25;;;18.73;62.74
78745;BME280;68064;53.100;8.824;2023-07-16T02:23:19;100907.81;;;18.70;62.47
78745;BME280;68064;53.100;8.824;2023-07-16T02:24:20;100913.03;;;18.74;62.69
78745;BME280;68064;53.100;8.824;2023-07-16T02:25:21;100915.59;;;18.71;62.27
78745;BME280;68064;53.100;8.824;2023-07-16T02:26:22;100917.25;;;18.68;62.22
78745;BME280;68064;53.100;8.824;2023-07-16T02:27:23;100922.44;;;18.66;62.46
78745;BME280;68064;53.100;8.824;2023-07-16T02:28:24;100922.41;;;18.65;62.54
78745;BME280;68064;53.100;8.824;2023-07-16T02:29:25;100921.56;;;18.66;62.49
78745;BME280;68064;53.100;8.824;2023-07-16T02:30:26;100928.47;;;18.67;62.87
78745;BME280;68064;53.100;8.824;2023-07-16T02:31:28;100919.78;;;18.62;72.61
78745;BME280;68064;53.100;8.824;2023-07-16T02:32:29;100917.06;;;18.51;66.04
78745;BME280;68064;53.100;8.824;2023-07-16T02:33:30;100921.44;;;18.54;64.13
78745;BME280;68064;53.100;8.824;2023-07-16T02:34:31;100923.16;;;18.55;63.50
78745;BME280;68064;53.100;8.824;2023-07-16T02:35:32;100922.31;;;18.56;63.22
78745;BME280;68064;53.100;8.824;2023-07-16T02:36:33;100923.19;;;18.56;62.96
78745;BME280;68064;53.100;8.824;2023-07-16T02:37:34;100921.47;;;18.57;62.98
78745;BME280;68064;53.100;8.824;2023-07-16T02:38:35;100924.88;;;18.53;64.11
78745;BME280;68064;53.100;8.824;2023-07-16T02:39:38;100923.16;;;18.55;63.20
78745;BME280;68064;53.100;8.824;2023-07-16T02:40:42;100924.94;;;18.59;63.13
78745;BME280;68064;53.100;8.824;2023-07-16T02:41:43;100930.13;;;18.59;63.22
78745;BME280;68064;53.100;8.824;2023-07-16T02:42:44;100924.97;;;18.62;63.16
78745;BME280;68064;53.100;8.824;2023-07-16T02:43:46;100923.25;;;18.62;63.23
78745;BME280;68064;53.100;8.824;2023-07-16T02:44:47;100915.41;;;18.58;62.89
78745;BME280;68064;53.100;8.824;2023-07-16T02:45:48;100918.84;;;18.55;62.97
78745;BME280;68064;53.100;8.824;2023-07-16T02:46:50;100920.56;;;18.53;62.75
78745;BME280;68064;53.100;8.824;2023-07-16T02:47:51;100923.06;;;18.48;63.34
78745;BME280;68064;53.100;8.824;2023-07-16T02:48:52;100924.72;;;18.43;65.47
78745;BME280;68064;53.100;8.824;2023-07-16T02:49:54;100921.25;;;18.44;63.71
78745;BME280;68064;53.100;8.824;2023-07-16T02:50:54;100920.47;;;18.47;63.24
78745;BME280;68064;53.100;8.824;2023-07-16T02:51:55;100926.53;;;18.49;63.03
78745;BME280;68064;53.100;8.824;2023-07-16T02:52:56;100920.56;;;18.53;68.12
78745;BME280;68064;53.100;8.824;2023-07-16T02:53:57;100928.38;;;18.58;65.45
78745;BME280;68064;53.100;8.824;2023-07-16T02:54:58;100925.72;;;18.52;64.37
78745;BME280;68064;53.100;8.824;2023-07-16T02:55:59;100924.03;;;18.55;65.72
78745;BME280;68064;53.100;8.824;2023-07-16T02:57:00;100924.78;;;18.48;66.84
78745;BME280;68064;53.100;8.824;2023-07-16T02:58:01;100926.31;;;18.31;67.76
78745;BME280;68064;53.100;8.824;2023-07-16T02:59:02;100928.09;;;18.38;65.65
78745;BME280;68064;53.100;8.824;2023-07-16T03:00:05;100927.38;;;18.46;65.29
78745;BME280;68064;53.100;8.824;2023-07-16T03:01:06;100929.03;;;18.44;64.84
78745;BME280;68064;53.100;8.824;2023-07-16T03:02:08;100929.81;;;18.36;73.61
78745;BME280;68064;53.100;8.824;2023-07-16T03:03:09;100936.78;;;18.40;65.96
78745;BME280;68064;53.100;8.824;2023-07-16T03:04:10;100935.00;;;18.34;66.35
78745;BME280;68064;53.100;8.824;2023-07-16T03:05:11;100935.91;;;18.39;64.93
78745;BME280;68064;53.100;8.824;2023-07-16T03:06:12;100941.13;;;18.42;65.22
78745;BME280;68064;53.100;8.824;2023-07-16T03:07:13;100945.59;;;18.49;65.76
78745;BME280;68064;53.100;8.824;2023-07-16T03:08:14;100942.84;;;18.40;65.37
78745;BME280;68064;53.100;8.824;2023-07-16T03:09:15;100943.66;;;18.36;66.44
78745;BME280;68064;53.100;8.824;2023-07-16T03:10:17;100945.41;;;18.37;64.85
78745;BME280;68064;53.100;8.824;2023-07-16T03:11:18;100948.78;;;18.35;72.88
78745;BME280;68064;53.100;8.824;2023-07-16T03:12:19;100945.25;;;18.27;68.63
78745;BME280;68064;53.100;8.824;2023-07-16T03:13:20;100951.16;;;18.17;71.97
78745;BME280;68064;53.100;8.824;2023-07-16T03:14:21;100944.31;;;18.23;71.27
78745;BME280;68064;53.100;8.824;2023-07-16T03:15:22;100944.31;;;18.22;66.82
78745;BME280;68064;53.100;8.824;2023-07-16T03:16:23;100951.97;;;18.14;77.01
78745;BME280;68064;53.100;8.824;2023-07-16T03:17:25;100958.00;;;18.12;70.02
78745;BME280;68064;53.100;8.824;2023-07-16T03:18:28;100952.97;;;18.24;66.34
78745;BME280;68064;53.100;8.824;2023-07-16T03:19:29;100952.94;;;18.22;66.12
78745;BME280;68064;53.100;8.824;2023-07-16T03:20:30;100955.56;;;18.24;65.32
78745;BME280;68064;53.100;8.824;2023-07-16T03:21:31;100953.91;;;18.27;65.44
78745;BME280;68064;53.100;8.824;2023-07-16T03:22:32;100955.69;;;18.31;64.83
78745;BME280;68064;53.100;8.824;2023-07-16T03:23:33;100959.09;;;18.29;67.15
78745;BME280;68064;53.100;8.824;2023-07-16T03:24:34;100959.97;;;18.28;64.62
78745;BME280;68064;53.100;8.824;2023-07-16T03:25:35;100960.03;;;18.35;66.35
78745;BME280;68064;53.100;8.824;2023-07-16T03:26:36;100960.88;;;18.33;69.57
78745;BME280;68064;53.100;8.824;2023-07-16T03:27:37;100960.78;;;18.28;65.98
78745;BME280;68064;53.100;8.824;2023-07-16T03:28:38;100971.97;;;18.23;69.72
78745;BME280;68064;53.100;8.824;2023-07-16T03:29:39;100960.72;;;18.22;74.99
78745;BME280;68064;53.100;8.824;2023-07-16T03:30:44;100955.56;;;18.25;67.53
78745;BME280;68064;53.100;8.824;2023-07-16T03:31:45;100960.78;;;18.28;65.77
78745;BME280;68064;53.100;8.824;2023-07-16T03:32:48;100960.78;;;18.28;65.34
78745;BME280;68064;53.100;8.824;2023-07-16T03:33:49;100961.63;;;18.26;65.04
78745;BME280;68064;53.100;8.824;2023-07-16T03:34:49;100965.06;;;18.23;74.19
78745;BME280;68064;53.100;8.824;2023-07-16T03:35:51;100972.03;;;18.29;65.35
78745;BME280;68064;53.100;8.824;2023-07-16T03:36:52;100977.09;;;18.18;69.16
78745;BME280;68064;53.100;8.824;2023-07-16T03:37:53;100974.50;;;18.20;66.91
78745;BME280;68064;53.100;8.824;2023-07-16T03:38:54;100973.59;;;18.16;66.42
78745;BME280;68064;53.100;8.824;2023-07-16T03:39:55;100979.72;;;18.21;65.48
78745;BME280;68064;53.100;8.824;2023-07-16T03:40:56;100983.16;;;18.20;69.79
78745;BME280;68064;53.100;8.824;2023-07-16T03:41:57;100982.38;;;18.24;65.69
78745;BME280;68064;53.100;8.824;2023-07-16T03:42:58;100978.06;;;18.25;67.38
78745;BME280;68064;53.100;8.824;2023-07-16T03:43:59;100979.78;;;18.24;66.45
78745;BME280;68064;53.100;8.824;2023-07-16T03:45:00;100983.19;;;18.23;65.69
78745;BME280;68064;53.100;8.824;2023-07-16T03:46:01;100981.44;;;18.22;64.88
78745;BME280;68064;53.100;8.824;2023-07-16T03:47:02;100981.50;;;18.25;64.80
78745;BME280;68064;53.100;8.824;2023-07-16T03:48:05;100985.00;;;18.27;64.96
78745;BME280;68064;53.100;8.824;2023-07-16T03:49:07;100979.69;;;18.18;69.58
78745;BME280;68064;53.100;8.824;2023-07-16T03:50:08;100986.59;;;18.19;66.36
78745;BME280;68064;53.100;8.824;2023-07-16T03:51:10;100983.97;;;18.16;65.57
78745;BME280;68064;53.100;8.824;2023-07-16T03:52:10;100987.50;;;18.21;65.81
78745;BME280;68064;53.100;8.824;2023-07-16T03:53:12;100987.47;;;18.18;66.29
78745;BME280;68064;53.100;8.824;2023-07-16T03:54:13;100991.78;;;18.19;65.57
78745;BME280;68064;53.100;8.824;2023-07-16T03:55:14;100988.34;;;18.20;65.42
78745;BME280;68064;53.100;8.824;2023-07-16T03:56:15;100994.41;;;18.21;65.24
78745;BME280;68064;53.100;8.824;2023-07-16T03:57:16;100998.75;;;18.22;65.59
78745;BME280;68064;53.100;8.824;2023-07-16T03:58:17;100999.63;;;18.24;65.18
78745;BME280;68064;53.100;8.824;2023-07-16T03:59:18;101000.50;;;18.26;64.86
78745;BME280;68064;53.100;8.824;2023-07-16T04:00:19;101003.09;;;18.24;67.06
78745;BME280;68064;53.100;8.824;2023-07-16T04:01:21;100999.50;;;18.16;66.93
78745;BME280;68064;53.100;8.824;2023-07-16T04:02:23;101010.75;;;18.17;65.54
78745;BME280;68064;53.100;8.824;2023-07-16T04:03:25;101009.00;;;18.14;66.45
78745;BME280;68064;53.100;8.824;2023-07-16T04:04:26;101009.97;;;18.22;66.12
78745;BME280;68064;53.100;8.824;2023-07-16T04:05:27;101004.72;;;18.19;66.01
78745;BME280;68064;53.100;8.824;2023-07-16T04:06:28;101009.88;;;18.16;66.17
78745;BME280;68064;53.100;8.824;2023-07-16T04:07:29;101011.53;;;18.13;68.12
78745;BME280;68064;53.100;8.824;2023-07-16T04:08:30;101010.81;;;18.21;66.28
78745;BME280;68064;53.100;8.824;2023-07-16T04:09:31;101010.03;;;18.27;67.14
78745;BME280;68064;53.100;8.824;2023-07-16T04:10:32;101003.94;;;18.23;65.98
78745;BME280;68064;53.100;8.824;2023-07-16T04:11:33;100997.91;;;18.24;66.48
78745;BME280;68064;53.100;8.824;2023-07-16T04:12:34;101003.97;;;18.25;66.74
78745;BME280;68064;53.100;8.824;2023-07-16T04:13:35;101003.94;;;18.23;66.45
78745;BME280;68064;53.100;8.824;2023-07-16T04:14:36;100996.16;;;18.22;74.05
78745;BME280;68064;53.100;8.824;2023-07-16T04:15:37;100997.81;;;18.18;66.34
78745;BME280;68064;53.100;8.824;2023-07-16T04:16:38;100993.53;;;18.20;65.87
78745;BME280;68064;53.100;8.824;2023-07-16T04:17:39;100998.75;;;18.23;65.54
78745;BME280;68064;53.100;8.824;2023-07-16T04:18:42;100998.72;;;18.20;72.73
78745;BME280;68064;53.100;8.824;2023-07-16T04:19:43;100998.63;;;18.14;67.77
78745;BME280;68064;53.100;8.824;2023-07-16T04:20:44;100993.47;;;18.17;71.72
78745;BME280;68064;53.100;8.824;2023-07-16T04:21:45;100990.94;;;18.20;66.61
78745;BME280;68064;53.100;8.824;2023-07-16T04:22:46;100991.72;;;18.16;66.99
78745;BME280;68064;53.100;8.824;2023-07-16T04:23:47;101002.13;;;18.19;69.13
78745;BME280;68064;53.100;8.824;2023-07-16T04:24:48;100996.06;;;18.19;65.87
78745;BME280;68064;53.100;8.824;2023-07-16T04:25:51;101010.78;;;18.20;66.02
78745;BME280;68064;53.100;8.824;2023-07-16T04:26:52;101009.91;;;18.18;65.57
78745;BME280;68064;53.100;8.824;2023-07-16T04:27:53;101011.66;;;18.20;65.59
78745;BME280;68064;53.100;8.824;2023-07-16T04:28:54;101000.38;;;18.15;65.45
78745;BME280;68064;53.100;8.824;2023-07-16T04:29:55;101010.69;;;18.12;67.80
78745;BME280;68064;53.100;8.824;2023-07-16T04:30:56;101004.63;;;18.12;66.05
78745;BME280;68064;53.100;8.824;2023-07-16T04:31:58;101008.91;;;18.08;65.49
78745;BME280;68064;53.100;8.824;2023-07-16T04:32:59;101007.97;;;18.05;66.35
78745;BME280;68064;53.100;8.824;2023-07-16T04:34:01;101002.81;;;18.06;65.38
78745;BME280;68064;53.100;8.824;2023-07-16T04:35:02;101012.13;;;17.95;76.47
78745;BME280;68064;53.100;8.824;2023-07-16T04:36:04;101019.97;;;17.98;74.14
78745;BME280;68064;53.100;8.824;2023-07-16T04:37:05;101016.38;;;17.90;71.54
78745;BME280;68064;53.100;8.824;2023-07-16T04:38:06;101018.84;;;17.84;77.23
78745;BME280;68064;53.100;8.824;2023-07-16T04:39:07;101019.69;;;17.81;75.78
78745;BME280;68064;53.100;8.824;2023-07-16T04:40:08;101017.81;;;17.74;77.44
78745;BME280;68064;53.100;8.824;2023-07-16T04:41:09;101015.31;;;17.79;76.50
78745;BME280;68064;53.100;8.824;2023-07-16T04:42:11;101021.34;;;17.76;73.69
78745;BME280;68064;53.100;8.824;2023-07-16T04:43:12;101020.50;;;17.79;68.62
78745;BME280;68064;53.100;8.824;2023-07-16T04:44:13;101029.16;;;17.79;75.38
78745;BME280;68064;53.100;8.824;2023-07-16T04:45:14;101030.81;;;17.76;77.08
78745;BME280;68064;53.100;8.824;2023-07-16T04:46:15;101030.78;;;17.74;70.82
78745;BME280;68064;53.100;8.824;2023-07-16T04:47:16;101031.66;;;17.73;77.53
78745;BME280;68064;53.100;8.824;2023-07-16T04:48:17;101032.47;;;17.72;69.82
78745;BME280;68064;53.100;8.824;2023-07-16T04:49:19;101030.97;;;17.85;68.58
78745;BME280;68064;53.100;8.824;2023-07-16T04:50:20;101034.38;;;17.84;68.47
78745;BME280;68064;53.100;8.824;2023-07-16T04:51:21;101039.56;;;17.82;69.94
78745;BME280;68064;53.100;8.824;2023-07-16T04:52:22;101033.50;;;17.82;68.36
78745;BME280;68064;53.100;8.824;2023-07-16T04:53:23;101033.47;;;17.79;68.54
78745;BME280;68064;53.100;8.824;2023-07-16T04:54:25;101040.34;;;17.77;69.37
78745;BME280;68064;53.100;8.824;2023-07-16T04:55:26;101032.53;;;17.74;68.60
78745;BME280;68064;53.100;8.824;2023-07-16T04:56:27;101032.38;;;17.68;73.42
78745;BME280;68064;53.100;8.824;2023-07-16T04:57:27;101044.59;;;17.75;69.00
78745;BME280;68064;53.100;8.824;2023-07-16T04:58:28;101036.97;;;17.84;68.14
78745;BME280;68064;53.100;8.824;2023-07-16T04:59:30;101034.34;;;17.79;75.78
78745;BME280;68064;53.100;8.824;2023-07-16T05:00:31;101034.28;;;17.78;69.81
78745;BME280;68064;53.100;8.824;2023-07-16T05:01:32;101036.94;;;17.81;70.58
78745;BME280;68064;53.100;8.824;2023-07-16T05:02:33;101046.34;;;17.76;77.42
78745;BME280;68064;53.100;8.824;2023-07-16T05:03:35;101050.66;;;17.74;69.57
78745;BME280;68064;53.100;8.824;2023-07-16T05:04:37;101041.13;;;17.74;69.19
78745;BME280;68064;53.100;8.824;2023-07-16T05:05:38;101049.78;;;17.75;76.34
78745;BME280;68064;53.100;8.824;2023-07-16T05:06:39;101048.84;;;17.70;76.63
78745;BME280;68064;53.100;8.824;2023-07-16T05:07:40;101041.22;;;17.79;76.48
78745;BME280;68064;53.100;8.824;2023-07-16T05:08:41;101040.28;;;17.75;71.43
78745;BME280;68064;53.100;8.824;2023-07-16T05:09:43;101042.25;;;17.88;69.21
78745;BME280;68064;53.100;8.824;2023-07-16T05:10:43;101037.91;;;17.86;68.37
78745;BME280;68064;53.100;8.824;2023-07-16T05:11:44;101040.41;;;17.81;68.72
78745;BME280;68064;53.100;8.824;2023-07-16T05:12:45;101039.56;;;17.84;69.25
78745;BME280;68064;53.100;8.824;2023-07-16T05:13:46;101051.63;;;17.80;69.21
78745;BME280;68064;53.100;8.824;2023-07-16T05:14:48;101051.59;;;17.79;77.44
78745;BME280;68064;53.100;8.824;2023-07-16T05:15:49;101045.56;;;17.81;70.01
78745;BME280;68064;53.100;8.824;2023-07-16T05:16:50;101049.88;;;17.79;70.16
78745;BME280;68064;53.100;8.824;2023-07-16T05:17:51;101051.63;;;17.80;73.95
78745;BME280;68064;53.100;8.824;2023-07-16T05:18:52;101060.28;;;17.82;69.45
78745;BME280;68064;53.100;8.824;2023-07-16T05:19:55;101067.19;;;17.82;77.52
78745;BME280;68064;53.100;8.824;2023-07-16T05:20:56;101060.25;;;17.81;77.68
78745;BME280;68064;53.100;8.824;2023-07-16T05:21:57;101056.91;;;17.86;70.61
78745;BME280;68064;53.100;8.824;2023-07-16T05:22:58;101062.09;;;17.88;69.81
78745;BME280;68064;53.100;8.824;2023-07-16T05:23:59;101054.31;;;17.86;68.85
78745;BME280;68064;53.100;8.824;2023-07-16T05:25:00;101060.44;;;17.90;68.97